Time;durP1;ratioP1;P1;durP2;ratioP2;P2;SDS_P1;SDS_P2;PMS_P1;PMS_P2;Temp;Humidity;BMP_temperature;BMP_pressure;BME280_temperature;BME280_humidity;BME280_pressure;Samples;Min_cycle;Max_cycle;Signal;HPM_P1;HPM_P2
2023/05/30 00:02:05;;;;;;;8.65;2.42;;;10.70;99.90;;;;;;5007366;28;20046;-36
2023/05/30 00:04:33;;;;;;;7.28;2.38;;;10.70;99.90;;;;;;4999767;28;20818;-36
2023/05/30 00:07:03;;;;;;;6.55;2.30;;;10.70;99.90;;;;;;5003185;28;20038;-35
2023/05/30 00:09:29;;;;;;;6.50;1.98;;;10.70;99.90;;;;;;5002365;28;20531;-36
2023/05/30 00:11:55;;;;;;;6.28;1.60;;;10.70;99.90;;;;;;5007361;28;20052;-35
2023/05/30 00:14:26;;;;;;;9.60;2.35;;;10.70;99.90;;;;;;5006074;28;20467;-36
2023/05/30 00:16:56;;;;;;;6.40;2.05;;;10.60;99.90;;;;;;5012918;28;20113;-36
2023/05/30 00:19:28;;;;;;;5.30;1.90;;;10.60;99.90;;;;;;5003777;28;20484;-36
2023/05/30 00:21:54;;;;;;;8.63;2.40;;;10.60;99.90;;;;;;5001660;28;20054;-35
2023/05/30 00:24:22;;;;;;;7.68;2.10;;;10.60;99.90;;;;;;4989966;28;20048;-36
2023/05/30 00:26:51;;;;;;;6.88;2.08;;;10.60;99.90;;;;;;5005091;28;20114;-36
2023/05/30 00:29:20;;;;;;;4.47;1.60;;;10.60;99.90;;;;;;5016443;28;20411;-35
2023/05/30 00:31:52;;;;;;;7.07;1.88;;;10.60;99.90;;;;;;4999119;28;20361;-35
2023/05/30 00:34:18;;;;;;;10.52;2.15;;;10.60;99.90;;;;;;5011046;28;20561;-36
2023/05/30 00:36:44;;;;;;;8.70;2.28;;;10.60;99.90;;;;;;5007785;28;20054;-36
2023/05/30 00:39:11;;;;;;;8.13;2.45;;;10.60;99.90;;;;;;5002677;28;20447;-35
2023/05/30 00:41:36;;;;;;;6.32;2.08;;;10.60;99.90;;;;;;5005213;28;20042;-36
2023/05/30 00:44:03;;;;;;;6.93;2.00;;;10.60;99.90;;;;;;5004963;28;20070;-36
2023/05/30 00:46:30;;;;;;;5.68;2.20;;;10.60;99.90;;;;;;5003085;28;20081;-36
2023/05/30 00:48:57;;;;;;;8.70;2.17;;;10.60;99.90;;;;;;5010550;28;20500;-36
2023/05/30 00:51:27;;;;;;;9.27;2.47;;;10.60;99.90;;;;;;5006150;28;20041;-36
2023/05/30 00:54:00;;;;;;;7.25;2.25;;;10.50;99.90;;;;;;5010811;28;20034;-35
2023/05/30 00:56:26;;;;;;;6.65;2.40;;;10.50;99.90;;;;;;4997455;28;20054;-35
2023/05/30 00:58:53;;;;;;;3.70;1.65;;;10.50;99.90;;;;;;5016325;28;20046;-36
2023/05/30 01:01:20;;;;;;;5.83;2.23;;;10.50;99.90;;;;;;5010458;28;20080;-36
2023/05/30 01:04:11;;;;;;;6.75;2.58;;;10.50;99.90;;;;;;5005732;28;20472;-36
2023/05/30 01:06:40;;;;;;;5.57;2.05;;;10.60;99.90;;;;;;5006574;28;20534;-36
2023/05/30 01:09:08;;;;;;;6.28;2.67;;;10.50;99.90;;;;;;4994714;28;20357;-36
2023/05/30 01:11:54;;;;;;;4.88;2.10;;;10.50;99.90;;;;;;5004679;28;20041;-36
2023/05/30 01:14:25;;;;;;;7.15;2.28;;;10.50;99.90;;;;;;5005332;28;20081;-36
2023/05/30 01:17:02;;;;;;;7.97;1.80;;;10.50;99.90;;;;;;5009742;28;20045;-35
2023/05/30 01:19:33;;;;;;;5.90;2.10;;;10.50;99.90;;;;;;5010494;28;20089;-36
2023/05/30 01:22:16;;;;;;;6.20;2.10;;;10.50;99.90;;;;;;5004584;28;20046;-36
2023/05/30 01:24:52;;;;;;;7.30;1.83;;;10.50;99.90;;;;;;5010522;28;20319;-35
2023/05/30 01:27:36;;;;;;;4.63;1.90;;;10.50;99.90;;;;;;4993636;28;20282;-35
2023/05/30 01:30:04;;;;;;;8.77;2.05;;;10.50;99.90;;;;;;4981161;28;20053;-36
2023/05/30 01:32:33;;;;;;;5.15;1.85;;;10.50;99.90;;;;;;5009605;28;20052;-36
2023/05/30 01:35:02;;;;;;;7.43;2.20;;;10.50;99.90;;;;;;5014177;28;20046;-45
2023/05/30 01:37:27;;;;;;;8.60;2.25;;;10.50;99.90;;;;;;5004796;28;20124;-35
2023/05/30 01:39:56;;;;;;;6.63;1.77;;;10.50;99.90;;;;;;5000261;28;20133;-36
2023/05/30 01:42:23;;;;;;;7.72;2.20;;;10.50;99.90;;;;;;4986933;28;20132;-36
2023/05/30 01:45:11;;;;;;;7.60;1.80;;;10.50;99.90;;;;;;5005031;28;20403;-35
2023/05/30 01:47:58;;;;;;;9.38;2.67;;;10.50;99.90;;;;;;5005144;28;20058;-42
2023/05/30 01:50:32;;;;;;;7.22;2.30;;;10.50;99.90;;;;;;5009055;28;20400;-35
2023/05/30 01:53:10;;;;;;;8.00;2.47;;;10.40;99.90;;;;;;5005010;28;20144;-35
2023/05/30 01:55:41;;;;;;;8.70;2.72;;;10.50;99.90;;;;;;4988302;28;20045;-35
2023/05/30 01:58:09;;;;;;;7.45;2.42;;;10.50;99.90;;;;;;5009518;28;20045;-36
2023/05/30 02:00:42;;;;;;;5.85;2.10;;;10.50;99.90;;;;;;5004253;28;20045;-36
2023/05/30 02:03:13;;;;;;;6.90;2.40;;;10.50;99.90;;;;;;5009144;28;20029;-35
2023/05/30 02:05:39;;;;;;;8.25;2.25;;;10.50;99.90;;;;;;5006249;28;20490;-36
2023/05/30 02:08:05;;;;;;;7.95;2.55;;;10.60;99.90;;;;;;5013751;28;20125;-36
2023/05/30 02:10:31;;;;;;;5.18;2.45;;;10.60;99.90;;;;;;5008802;28;20619;-36
2023/05/30 02:12:59;;;;;;;5.43;2.50;;;10.50;99.90;;;;;;5017121;28;20117;-35
2023/05/30 02:15:25;;;;;;;7.75;2.35;;;10.60;99.90;;;;;;5003329;28;20113;-36
2023/05/30 02:17:54;;;;;;;6.57;2.42;;;10.50;99.90;;;;;;5011284;28;20554;-36
2023/05/30 02:20:23;;;;;;;8.38;2.78;;;10.60;99.90;;;;;;5004682;28;20077;-35
2023/05/30 02:22:50;;;;;;;7.53;2.72;;;10.50;99.90;;;;;;5006562;28;20451;-36
2023/05/30 02:25:20;;;;;;;6.75;2.78;;;10.50;99.90;;;;;;5002011;28;20088;-36
2023/05/30 02:27:47;;;;;;;9.35;2.60;;;10.40;99.90;;;;;;4996820;28;20779;-35
2023/05/30 02:30:16;;;;;;;7.05;2.13;;;10.50;99.90;;;;;;4989969;28;20467;-36
2023/05/30 02:32:42;;;;;;;7.65;2.63;;;10.50;99.90;;;;;;5006825;28;20041;-35
2023/05/30 02:35:13;;;;;;;7.65;2.85;;;10.50;99.90;;;;;;5003844;28;20048;-35
2023/05/30 02:37:39;;;;;;;6.45;2.33;;;10.50;99.90;;;;;;4995686;28;20078;-36
2023/05/30 02:40:09;;;;;;;6.65;2.38;;;10.50;99.90;;;;;;4983488;28;20057;-35
2023/05/30 02:42:37;;;;;;;6.15;2.25;;;10.50;99.90;;;;;;5002542;28;20069;-35
2023/05/30 02:45:03;;;;;;;7.18;2.75;;;10.50;99.90;;;;;;4994957;28;20128;-35
2023/05/30 02:47:32;;;;;;;6.65;2.72;;;10.50;99.90;;;;;;5007168;28;20077;-35
2023/05/30 02:49:58;;;;;;;8.57;2.33;;;10.40;99.90;;;;;;5012845;28;20391;-35
2023/05/30 02:52:25;;;;;;;9.52;2.75;;;10.40;99.90;;;;;;5002410;28;20034;-35
2023/05/30 02:54:51;;;;;;;8.93;2.60;;;10.40;99.90;;;;;;5017618;28;20041;-35
2023/05/30 02:57:19;;;;;;;9.23;3.55;;;10.40;99.90;;;;;;4999621;28;20443;-35
2023/05/30 02:59:45;;;;;;;6.00;2.85;;;10.40;99.90;;;;;;5004168;28;20042;-35
2023/05/30 03:02:11;;;;;;;8.90;2.38;;;10.40;99.90;;;;;;5003645;28;20046;-35
2023/05/30 03:04:45;;;;;;;4.90;2.70;;;10.40;99.90;;;;;;5007652;28;20571;-35
2023/05/30 03:07:18;;;;;;;10.35;2.88;;;10.40;99.90;;;;;;5003154;28;20100;-35
2023/05/30 03:09:44;;;;;;;7.50;2.50;;;10.40;99.90;;;;;;5003409;28;20136;-35
2023/05/30 03:12:10;;;;;;;9.52;2.67;;;10.40;99.90;;;;;;4985798;28;20042;-35
2023/05/30 03:14:36;;;;;;;9.77;2.90;;;10.40;99.90;;;;;;4991866;28;20125;-35
2023/05/30 03:17:03;;;;;;;5.63;2.63;;;10.40;99.90;;;;;;5007556;28;20044;-35
2023/05/30 03:19:29;;;;;;;7.03;2.40;;;10.50;99.90;;;;;;5003718;28;20118;-35
2023/05/30 03:21:56;;;;;;;6.20;2.70;;;10.50;99.90;;;;;;5005962;28;20053;-35
2023/05/30 03:24:26;;;;;;;9.23;2.70;;;10.40;99.90;;;;;;5007280;28;20149;-35
2023/05/30 03:26:56;;;;;;;9.52;2.72;;;10.40;99.90;;;;;;5001474;28;20089;-35
2023/05/30 03:29:22;;;;;;;6.75;2.20;;;10.40;99.90;;;;;;5002938;28;20117;-35
2023/05/30 03:31:50;;;;;;;6.78;2.35;;;10.50;99.90;;;;;;4978171;28;20136;-35
2023/05/30 03:34:16;;;;;;;6.88;2.30;;;10.50;99.90;;;;;;5001119;28;20125;-35
2023/05/30 03:36:43;;;;;;;8.38;2.63;;;10.40;99.90;;;;;;5005498;28;20125;-35
2023/05/30 03:39:09;;;;;;;6.28;2.55;;;10.50;99.90;;;;;;4990339;28;20060;-35
2023/05/30 03:41:35;;;;;;;5.50;2.30;;;10.40;99.90;;;;;;4986462;28;20038;-35
2023/05/30 03:44:01;;;;;;;10.95;2.60;;;10.50;99.90;;;;;;4996374;28;20042;-35
2023/05/30 03:46:26;;;;;;;6.78;2.05;;;10.60;99.90;;;;;;5005884;28;20042;-35
2023/05/30 03:48:52;;;;;;;9.48;2.28;;;10.60;99.90;;;;;;5006020;28;20392;-35
2023/05/30 03:51:18;;;;;;;6.72;2.22;;;10.60;99.90;;;;;;5003894;28;20034;-35
2023/05/30 03:53:44;;;;;;;7.82;2.60;;;10.60;99.90;;;;;;5003725;28;20438;-35
2023/05/30 03:56:10;;;;;;;7.85;2.15;;;10.60;99.90;;;;;;4985720;28;20045;-35
2023/05/30 03:58:36;;;;;;;7.90;2.15;;;10.60;99.90;;;;;;4999637;28;20050;-35
2023/05/30 04:01:01;;;;;;;5.55;2.13;;;10.60;99.90;;;;;;5007427;28;20129;-35
2023/05/30 04:03:28;;;;;;;9.25;2.30;;;10.70;99.90;;;;;;5006986;28;20085;-35
2023/05/30 04:06:01;;;;;;;5.40;2.30;;;10.70;99.90;;;;;;5004750;28;20481;-35
2023/05/30 04:08:27;;;;;;;6.78;2.47;;;10.70;99.90;;;;;;5006855;28;20045;-35
2023/05/30 04:10:53;;;;;;;5.72;2.13;;;10.70;99.90;;;;;;5015931;28;20041;-35
2023/05/30 04:13:18;;;;;;;9.43;2.22;;;10.80;99.90;;;;;;5000303;28;20034;-35
2023/05/30 04:15:44;;;;;;;8.30;2.42;;;10.70;99.90;;;;;;5008537;28;20095;-35
2023/05/30 04:18:10;;;;;;;9.35;2.60;;;10.80;99.90;;;;;;5006838;28;20045;-35
2023/05/30 04:20:38;;;;;;;6.88;2.80;;;10.80;99.90;;;;;;5007305;28;20458;-35
2023/05/30 04:23:04;;;;;;;9.57;2.83;;;10.80;99.90;;;;;;5005742;28;20042;-35
2023/05/30 04:25:30;;;;;;;7.32;2.70;;;10.80;99.90;;;;;;5005023;28;20088;-35
2023/05/30 04:27:58;;;;;;;5.20;2.15;;;10.90;99.90;;;;;;5005715;28;20073;-35
2023/05/30 04:30:24;;;;;;;10.02;2.72;;;10.90;99.90;;;;;;5007684;28;20046;-35
2023/05/30 04:32:49;;;;;;;7.55;2.20;;;10.90;99.90;;;;;;5001198;28;20045;-35
2023/05/30 04:35:15;;;;;;;6.90;2.00;;;10.90;99.90;;;;;;4994527;28;20385;-35
2023/05/30 04:37:44;;;;;;;6.38;2.60;;;10.90;99.90;;;;;;5006931;28;20053;-35
2023/05/30 04:40:13;;;;;;;8.13;2.33;;;10.90;99.90;;;;;;5004940;28;20088;-36
2023/05/30 04:42:42;;;;;;;4.93;2.38;;;10.90;99.90;;;;;;5005754;28;20042;-35
2023/05/30 04:45:14;;;;;;;7.20;2.55;;;10.90;99.90;;;;;;5006508;28;20122;-35
2023/05/30 04:47:44;;;;;;;6.55;2.13;;;10.90;99.90;;;;;;4999817;28;20450;-35
2023/05/30 04:50:12;;;;;;;7.57;2.58;;;10.90;99.90;;;;;;5007478;28;20046;-36
2023/05/30 04:52:38;;;;;;;6.75;1.90;;;11.00;99.90;;;;;;4986599;28;20050;-35
2023/05/30 04:55:05;;;;;;;6.78;2.53;;;11.00;99.90;;;;;;5000642;28;20034;-35
2023/05/30 04:57:31;;;;;;;6.25;2.20;;;11.00;99.90;;;;;;5000312;28;20058;-35
2023/05/30 04:59:57;;;;;;;7.22;2.17;;;11.00;99.90;;;;;;4983699;28;20042;-36
2023/05/30 05:02:23;;;;;;;6.50;2.20;;;11.00;99.90;;;;;;4998408;28;20060;-45
2023/05/30 05:04:49;;;;;;;6.72;1.80;;;11.00;99.90;;;;;;4995033;28;20408;-42
2023/05/30 05:07:16;;;;;;;7.32;1.95;;;11.10;99.90;;;;;;5005877;28;20080;-35
2023/05/30 05:09:42;;;;;;;6.97;2.17;;;11.00;99.90;;;;;;4969401;28;20061;-35
2023/05/30 05:12:10;;;;;;;6.20;2.10;;;11.10;99.90;;;;;;4978143;28;20046;-36
2023/05/30 05:14:36;;;;;;;7.95;2.10;;;11.00;99.90;;;;;;5006578;28;20058;-35
2023/05/30 05:17:05;;;;;;;5.38;1.90;;;11.10;99.90;;;;;;5008871;28;20045;-35
2023/05/30 05:19:31;;;;;;;3.60;1.70;;;11.00;99.90;;;;;;5006236;28;20077;-35
2023/05/30 05:21:57;;;;;;;7.10;2.13;;;11.10;99.90;;;;;;5007842;28;20042;-35
2023/05/30 05:24:22;;;;;;;4.45;2.00;;;11.00;99.90;;;;;;5008696;28;20109;-35
2023/05/30 05:26:48;;;;;;;4.78;2.25;;;11.10;99.90;;;;;;5022112;28;20039;-35
2023/05/30 05:29:14;;;;;;;4.72;1.95;;;11.10;99.90;;;;;;5006324;28;20038;-35
2023/05/30 05:31:40;;;;;;;4.30;1.90;;;11.10;99.90;;;;;;5004963;28;20050;-35
2023/05/30 05:34:09;;;;;;;7.53;2.15;;;11.10;99.90;;;;;;5023569;28;20034;-35
2023/05/30 05:36:38;;;;;;;5.25;1.92;;;11.10;99.90;;;;;;4994052;28;20054;-35
2023/05/30 05:39:04;;;;;;;5.25;1.90;;;11.20;99.90;;;;;;5006148;28;20041;-39
2023/05/30 05:41:33;;;;;;;8.48;1.90;;;11.20;99.90;;;;;;4995713;28;20057;-35
2023/05/30 05:43:58;;;;;;;3.90;1.70;;;11.20;99.90;;;;;;5005812;28;20049;-35
2023/05/30 05:46:24;;;;;;;5.45;2.08;;;11.20;99.90;;;;;;5007849;28;20045;-35
2023/05/30 05:48:59;;;;;;;5.60;1.83;;;11.30;99.90;;;;;;5010084;28;20547;-35
2023/05/30 05:51:24;;;;;;;4.82;2.20;;;11.30;99.90;;;;;;4993586;28;20061;-35
2023/05/30 05:53:50;;;;;;;7.07;1.92;;;11.30;99.90;;;;;;5007366;28;20119;-35
2023/05/30 05:56:16;;;;;;;6.10;1.80;;;11.30;99.90;;;;;;5002059;28;20061;-35
2023/05/30 05:58:42;;;;;;;4.45;1.60;;;11.20;99.90;;;;;;5008938;28;20064;-35
2023/05/30 06:01:14;;;;;;;4.32;1.55;;;11.30;99.90;;;;;;5008728;28;20085;-35
2023/05/30 06:03:40;;;;;;;6.30;2.38;;;11.20;99.90;;;;;;4987486;28;20104;-36
2023/05/30 06:06:06;;;;;;;3.88;1.35;;;11.20;99.90;;;;;;4992373;28;20077;-35
2023/05/30 06:08:49;;;;;;;5.57;1.50;;;11.30;99.90;;;;;;5006229;28;20066;-35
2023/05/30 06:11:17;;;;;;;4.13;1.08;;;11.30;99.90;;;;;;5004424;28;20038;-35
2023/05/30 06:13:43;;;;;;;3.58;1.63;;;11.30;99.90;;;;;;5021792;28;20046;-36
2023/05/30 06:16:12;;;;;;;4.85;1.55;;;11.40;99.90;;;;;;5007642;28;20050;-35
2023/05/30 06:18:42;;;;;;;3.25;1.30;;;11.40;99.90;;;;;;5007908;28;20037;-35
2023/05/30 06:21:11;;;;;;;5.55;1.27;;;11.40;99.90;;;;;;5006147;28;20080;-36
2023/05/30 06:23:37;;;;;;;5.22;1.70;;;11.40;99.90;;;;;;5002593;28;20078;-35
2023/05/30 06:26:03;;;;;;;2.38;1.20;;;11.50;99.90;;;;;;5016324;28;20560;-35
2023/05/30 06:28:37;;;;;;;4.05;1.73;;;11.50;99.90;;;;;;4998204;28;20038;-35
2023/05/30 06:31:03;;;;;;;4.25;1.55;;;11.50;99.90;;;;;;5006880;28;20081;-39
2023/05/30 06:33:30;;;;;;;3.08;1.58;;;11.40;99.90;;;;;;5008481;28;20057;-36
2023/05/30 06:35:56;;;;;;;4.85;1.50;;;11.40;99.90;;;;;;5004561;28;20439;-35
2023/05/30 06:38:23;;;;;;;5.20;2.10;;;11.40;99.90;;;;;;5004946;28;20065;-35
2023/05/30 06:40:55;;;;;;;3.72;1.60;;;11.40;99.90;;;;;;5007564;28;20434;-35
2023/05/30 06:43:21;;;;;;;6.60;1.55;;;11.50;99.90;;;;;;4991141;28;20077;-35
2023/05/30 06:45:49;;;;;;;5.93;1.50;;;11.50;99.90;;;;;;5007683;28;20322;-36
2023/05/30 06:48:18;;;;;;;3.38;1.60;;;11.60;99.90;;;;;;5004518;28;20049;-35
2023/05/30 06:50:46;;;;;;;3.90;1.35;;;11.60;99.90;;;;;;5010170;28;20053;-35
2023/05/30 06:53:16;;;;;;;3.90;1.45;;;11.60;99.90;;;;;;4990530;28;20033;-35
2023/05/30 06:55:42;;;;;;;3.97;1.30;;;11.60;99.90;;;;;;4988496;28;20053;-35
2023/05/30 06:58:09;;;;;;;4.38;1.45;;;11.70;99.90;;;;;;5003333;28;20425;-35
2023/05/30 07:00:50;;;;;;;3.97;1.33;;;11.60;99.90;;;;;;4999898;28;20053;-35
2023/05/30 07:03:16;;;;;;;3.22;1.23;;;11.60;99.90;;;;;;5020717;28;20052;-35
2023/05/30 07:05:42;;;;;;;5.07;1.65;;;11.60;99.90;;;;;;5006691;28;20034;-35
2023/05/30 07:08:16;;;;;;;5.25;1.33;;;11.70;99.90;;;;;;5004225;28;20224;-36
2023/05/30 07:10:43;;;;;;;4.90;1.38;;;11.60;99.90;;;;;;5008196;28;20054;-35
2023/05/30 07:13:10;;;;;;;3.65;1.23;;;11.70;99.90;;;;;;5007795;28;20046;-35
2023/05/30 07:15:44;;;;;;;2.42;1.38;;;11.70;99.90;;;;;;5003379;28;20053;-35
2023/05/30 07:18:29;;;;;;;3.75;1.45;;;11.80;99.90;;;;;;5006613;28;20041;-35
2023/05/30 07:21:13;;;;;;;3.42;1.20;;;11.80;99.90;;;;;;5002177;28;20068;-35
2023/05/30 07:23:39;;;;;;;2.33;1.27;;;11.70;99.90;;;;;;5006440;28;20453;-35
2023/05/30 07:26:05;;;;;;;4.20;1.40;;;11.60;99.90;;;;;;5010682;28;20121;-35
2023/05/30 07:28:31;;;;;;;2.80;1.10;;;11.70;99.90;;;;;;5006322;28;20057;-35
2023/05/30 07:30:56;;;;;;;5.18;1.30;;;11.60;99.90;;;;;;4994302;28;20037;-35
2023/05/30 07:33:38;;;;;;;3.70;1.30;;;11.60;99.90;;;;;;4998990;28;20038;-35
2023/05/30 07:36:23;;;;;;;3.05;1.33;;;11.60;99.90;;;;;;5003730;28;20053;-35
2023/05/30 07:38:51;;;;;;;4.03;1.38;;;11.60;99.90;;;;;;5000024;28;20049;-35
2023/05/30 07:41:16;;;;;;;4.47;1.33;;;11.60;99.90;;;;;;5005464;28;20054;-35
2023/05/30 07:43:42;;;;;;;3.65;1.42;;;11.60;99.90;;;;;;5006898;28;20045;-35
2023/05/30 07:46:09;;;;;;;2.45;1.10;;;11.60;99.90;;;;;;5004512;28;20170;-36
2023/05/30 07:48:36;;;;;;;4.20;1.52;;;11.60;99.90;;;;;;4999955;28;20088;-35
2023/05/30 07:51:12;;;;;;;3.33;1.92;;;11.70;99.90;;;;;;5004148;28;20034;-37
2023/05/30 07:53:54;;;;;;;3.13;1.10;;;11.70;99.90;;;;;;4997219;28;20053;-36
2023/05/30 07:56:20;;;;;;;5.53;1.23;;;11.70;99.90;;;;;;5003828;28;20038;-35
2023/05/30 07:59:09;;;;;;;3.20;1.30;;;11.70;99.90;;;;;;5001293;28;20034;-36
2023/05/30 08:01:35;;;;;;;2.25;1.27;;;11.70;99.90;;;;;;5002547;28;20038;-35
2023/05/30 08:04:05;;;;;;;3.15;1.42;;;11.70;99.90;;;;;;5004057;28;20129;-36
2023/05/30 08:06:31;;;;;;;2.83;1.10;;;11.80;99.90;;;;;;5005277;28;20521;-35
2023/05/30 08:08:57;;;;;;;2.30;0.90;;;11.80;99.90;;;;;;5001645;28;20050;-35
2023/05/30 08:11:29;;;;;;;1.90;1.00;;;11.90;99.90;;;;;;5007235;28;20045;-35
2023/05/30 08:13:57;;;;;;;2.33;1.00;;;12.00;99.90;;;;;;5006242;28;20653;-35
2023/05/30 08:16:26;;;;;;;2.50;1.10;;;12.10;99.90;;;;;;5007285;28;20069;-35
2023/05/30 08:18:52;;;;;;;2.13;1.40;;;12.10;99.90;;;;;;5007211;28;20054;-36
2023/05/30 08:21:18;;;;;;;2.22;1.38;;;12.10;99.90;;;;;;5004530;28;20099;-35
2023/05/30 08:23:58;;;;;;;0.82;0.32;;;12.10;99.90;;;;;;5007804;28;20062;-35
2023/05/30 08:26:30;;;;;;;0.80;0.40;;;12.10;99.90;;;;;;5005146;28;20135;-36
2023/05/30 08:28:59;;;;;;;0.85;0.47;;;12.00;99.90;;;;;;5008314;28;20116;-35
2023/05/30 08:31:27;;;;;;;2.72;0.68;;;12.00;99.90;;;;;;4986674;28;20042;-35
2023/05/30 08:33:53;;;;;;;2.72;0.75;;;12.00;99.90;;;;;;5004179;28;20049;-35
2023/05/30 08:36:21;;;;;;;1.30;0.60;;;12.00;99.90;;;;;;5018648;28;20484;-35
2023/05/30 08:38:53;;;;;;;1.20;0.70;;;11.90;99.90;;;;;;4998192;28;20126;-36
2023/05/30 08:41:21;;;;;;;2.65;0.82;;;12.00;99.90;;;;;;5003483;28;20050;-36
2023/05/30 08:43:47;;;;;;;1.50;0.57;;;12.10;99.90;;;;;;4998621;28;20523;-44
2023/05/30 08:46:15;;;;;;;1.08;0.70;;;12.20;99.90;;;;;;5008996;28;20887;-35
2023/05/30 08:48:48;;;;;;;1.08;0.68;;;12.50;99.90;;;;;;5010253;28;20033;-35
2023/05/30 08:51:24;;;;;;;1.13;0.50;;;12.90;99.90;;;;;;5004073;28;20046;-35
2023/05/30 08:53:55;;;;;;;0.45;0.30;;;13.80;99.90;;;;;;5014541;28;20026;-35
2023/05/30 08:56:35;;;;;;;1.13;0.60;;;14.20;99.90;;;;;;5010114;28;20514;-35
2023/05/30 08:59:05;;;;;;;0.38;0.22;;;14.10;99.90;;;;;;5019303;28;20462;-35
2023/05/30 09:01:33;;;;;;;0.98;0.30;;;13.90;99.90;;;;;;5014799;28;20082;-35
2023/05/30 09:04:02;;;;;;;1.58;0.32;;;13.80;99.90;;;;;;5011139;28;20227;-35
2023/05/30 09:06:29;;;;;;;1.05;0.40;;;13.90;99.90;;;;;;5003459;28;20046;-35
2023/05/30 09:08:55;;;;;;;3.45;0.40;;;13.80;99.90;;;;;;5005809;28;20053;-35
2023/05/30 09:11:22;;;;;;;1.17;0.30;;;13.70;99.90;;;;;;5009852;28;20037;-35
2023/05/30 09:13:51;;;;;;;0.98;0.45;;;13.60;99.90;;;;;;5008669;28;20343;-35
2023/05/30 09:16:24;;;;;;;1.75;0.30;;;13.50;99.90;;;;;;5008571;28;20053;-37
2023/05/30 09:18:57;;;;;;;1.00;0.40;;;13.40;99.90;;;;;;4994481;28;20494;-35
2023/05/30 09:21:24;;;;;;;0.80;0.30;;;13.30;99.90;;;;;;5018835;28;20045;-35
2023/05/30 09:23:53;;;;;;;2.08;0.50;;;13.30;99.90;;;;;;5000174;28;20466;-35
2023/05/30 09:31:25;;;;;;;2.20;0.60;;;13.20;99.90;;;;;;5076292;23;20045;-83
2023/05/30 09:33:51;;;;;;;1.38;0.43;;;13.20;99.90;;;;;;5023945;28;20045;-83
2023/05/30 09:36:19;;;;;;;0.68;0.55;;;13.00;99.90;;;;;;5002696;28;20075;-80
2023/05/30 09:38:59;;;;;;;1.73;0.60;;;12.90;99.90;;;;;;5021199;28;20442;-82
2023/05/30 09:41:26;;;;;;;1.00;0.60;;;12.70;99.90;;;;;;5020945;28;20420;-80
2023/05/30 09:43:53;;;;;;;1.30;0.40;;;12.60;99.90;;;;;;5040103;28;20034;-80
2023/05/30 09:46:24;;;;;;;2.47;0.40;;;12.50;99.90;;;;;;5021136;28;20100;-80
2023/05/30 09:48:51;;;;;;;0.60;0.35;;;12.50;99.90;;;;;;5016275;28;20085;-78
2023/05/30 09:51:18;;;;;;;1.13;0.40;;;12.50;99.90;;;;;;5008329;28;20049;-82
2023/05/30 09:54:03;;;;;;;2.25;0.35;;;12.50;99.90;;;;;;5009393;28;20052;-78
2023/05/30 09:56:39;;;;;;;0.82;0.50;;;12.50;99.90;;;;;;5008418;28;20128;-80
2023/05/30 09:59:07;;;;;;;2.15;0.50;;;12.60;99.90;;;;;;5022402;28;20045;-82
2023/05/30 10:01:47;;;;;;;0.43;0.30;;;12.70;99.90;;;;;;5026443;28;20046;-81
2023/05/30 10:04:22;;;;;;;1.60;0.40;;;12.80;99.90;;;;;;5011629;28;20584;-80
2023/05/30 10:06:53;;;;;;;1.02;0.40;;;12.90;99.90;;;;;;5016066;28;20050;-81
2023/05/30 10:09:23;;;;;;;1.77;0.40;;;12.90;99.90;;;;;;5019844;28;20061;-80
2023/05/30 10:19:57;;;;;;;0.28;0.20;;;13.00;99.90;;;;;;5015366;28;20033;-80
2023/05/30 10:26:05;;;;;;;1.27;0.40;;;13.20;99.90;;;;;;5019120;23;20580;-79
2023/05/30 10:28:34;;;;;;;1.77;0.55;;;13.30;99.90;;;;;;4978715;28;20058;-80
2023/05/30 10:31:03;;;;;;;1.25;0.50;;;13.40;99.90;;;;;;4964460;28;20057;-78
2023/05/30 10:33:35;;;;;;;1.40;0.40;;;13.40;99.90;;;;;;4952327;28;20055;-79
2023/05/30 10:36:02;;;;;;;1.33;0.57;;;13.50;99.90;;;;;;4966562;28;20042;-80
2023/05/30 10:38:31;;;;;;;0.73;0.50;;;13.50;99.90;;;;;;4983543;28;20051;-78
2023/05/30 10:41:20;;;;;;;1.17;0.40;;;13.50;99.90;;;;;;4948837;28;20129;-79
2023/05/30 10:44:07;;;;;;;0.50;0.30;;;13.50;99.90;;;;;;4950407;28;20055;-80
2023/05/30 10:46:45;;;;;;;0.50;0.30;;;13.60;99.90;;;;;;4935172;28;20049;-79
2023/05/30 10:49:16;;;;;;;0.40;0.30;;;13.60;99.90;;;;;;4953139;28;20537;-78
2023/05/30 10:52:05;;;;;;;0.90;0.50;;;13.70;99.90;;;;;;4967863;28;20105;-79
2023/05/30 10:54:33;;;;;;;2.33;0.60;;;13.70;99.90;;;;;;4964779;28;20062;-79
2023/05/30 10:57:28;;;;;;;0.73;0.40;;;13.70;99.90;;;;;;4948640;28;20034;-79
2023/05/30 11:00:06;;;;;;;0.38;0.38;;;13.60;99.90;;;;;;4949240;28;20122;-78
2023/05/30 11:02:36;;;;;;;1.23;0.40;;;13.60;99.90;;;;;;4964658;28;20054;-80
2023/05/30 11:05:10;;;;;;;0.93;0.60;;;13.70;99.90;;;;;;4963813;28;20050;-79
2023/05/30 11:07:37;;;;;;;0.80;0.38;;;13.70;99.90;;;;;;4949604;28;20075;-79
2023/05/30 11:10:14;;;;;;;1.63;0.80;;;13.70;99.90;;;;;;4960257;28;20179;-80
2023/05/30 11:12:45;;;;;;;2.40;0.70;;;13.70;99.90;;;;;;4948418;28;20049;-79
2023/05/30 11:15:15;;;;;;;1.75;0.50;;;13.70;99.90;;;;;;4948241;28;20049;-78
2023/05/30 11:17:41;;;;;;;0.70;0.55;;;13.60;99.90;;;;;;4963135;28;20043;-78
2023/05/30 11:20:16;;;;;;;0.70;0.40;;;13.60;99.90;;;;;;4945344;28;20054;-79
2023/05/30 11:23:01;;;;;;;2.42;0.80;;;13.70;99.90;;;;;;4950890;28;20054;-80
2023/05/30 11:25:28;;;;;;;0.45;0.40;;;13.80;99.90;;;;;;4947431;28;20142;-78
2023/05/30 11:28:03;;;;;;;0.55;0.40;;;13.80;99.90;;;;;;4965738;28;20600;-80
2023/05/30 11:30:29;;;;;;;0.77;0.43;;;13.80;99.90;;;;;;4952869;28;20090;-80
2023/05/30 11:32:58;;;;;;;1.33;0.68;;;13.80;99.90;;;;;;4979334;28;20046;-80
2023/05/30 11:35:26;;;;;;;1.55;0.60;;;13.70;99.90;;;;;;4952688;28;20221;-82
2023/05/30 11:37:53;;;;;;;;;;;13.70;99.90;;;;;;4964969;28;20059;-83
2023/05/30 11:40:21;;;;;;;1.73;0.60;;;13.70;99.90;;;;;;4961770;28;19922;-81
2023/05/30 11:42:51;;;;;;;0.88;0.52;;;13.80;99.90;;;;;;4948848;28;20197;-81
2023/05/30 11:45:19;;;;;;;0.50;0.50;;;13.80;99.90;;;;;;4944043;28;20074;-82
2023/05/30 11:47:46;;;;;;;2.80;0.57;;;13.80;99.90;;;;;;4945286;28;20510;-82
2023/05/30 11:50:12;;;;;;;1.95;0.70;;;13.80;99.90;;;;;;4946617;28;20497;-81
2023/05/30 11:52:39;;;;;;;0.95;0.55;;;13.90;99.90;;;;;;4948451;28;20149;-81
2023/05/30 11:55:05;;;;;;;1.67;0.60;;;14.00;99.90;;;;;;4965141;23;20049;-82
2023/05/30 11:57:31;;;;;;;1.00;0.60;;;14.00;99.90;;;;;;4988783;28;20046;-82
2023/05/30 11:59:58;;;;;;;2.85;0.80;;;13.90;99.90;;;;;;4988955;28;20481;-83
2023/05/30 12:02:30;;;;;;;2.85;0.95;;;14.00;99.90;;;;;;4989850;28;20096;-82
2023/05/30 12:05:03;;;;;;;2.22;1.05;;;13.90;99.90;;;;;;5007855;28;20223;-82
2023/05/30 12:07:32;;;;;;;2.03;0.50;;;14.00;99.90;;;;;;4993615;28;20401;-81
2023/05/30 12:09:58;;;;;;;1.38;0.60;;;14.00;99.90;;;;;;5007563;28;20080;-81
2023/05/30 12:12:24;;;;;;;1.10;0.52;;;14.20;99.90;;;;;;4991162;28;20116;-81
2023/05/30 12:14:55;;;;;;;0.82;0.50;;;14.30;99.90;;;;;;5009817;28;20046;-82
2023/05/30 12:17:24;;;;;;;1.23;0.60;;;14.30;99.90;;;;;;5006499;28;20053;-81
2023/05/30 12:19:55;;;;;;;0.93;0.60;;;14.40;99.90;;;;;;5005714;28;20042;-83
2023/05/30 12:22:22;;;;;;;2.35;0.55;;;14.50;99.90;;;;;;5025631;28;20136;-83
2023/05/30 12:24:49;;;;;;;2.25;0.50;;;14.50;99.90;;;;;;4993430;28;20118;-82
2023/05/30 12:27:26;;;;;;;1.40;0.63;;;14.60;99.90;;;;;;5025494;28;20117;-81
2023/05/30 12:29:52;;;;;;;1.75;0.82;;;14.60;99.90;;;;;;4993114;28;20096;-81
2023/05/30 12:32:23;;;;;;;1.05;0.52;;;14.60;99.90;;;;;;5015043;28;20042;-82
2023/05/30 12:34:49;;;;;;;1.52;0.70;;;14.60;99.90;;;;;;5011922;28;20570;-82
2023/05/30 12:37:17;;;;;;;1.42;0.60;;;14.70;99.90;;;;;;4994488;28;20050;-81
2023/05/30 12:39:48;;;;;;;0.60;0.50;;;14.80;99.90;;;;;;4993532;28;20052;-82
2023/05/30 12:42:20;;;;;;;1.08;0.52;;;14.80;99.90;;;;;;5005850;28;20092;-81
2023/05/30 12:44:52;;;;;;;1.77;0.55;;;14.90;99.90;;;;;;5011345;28;20042;-82
2023/05/30 12:47:18;;;;;;;0.63;0.47;;;14.60;99.90;;;;;;4993814;28;20512;-84
2023/05/30 12:49:44;;;;;;;1.20;0.40;;;14.40;99.90;;;;;;4974213;28;20054;-85
2023/05/30 12:52:13;;;;;;;0.73;0.60;;;14.30;99.90;;;;;;4990162;28;20045;-81
2023/05/30 12:54:46;;;;;;;0.75;0.50;;;14.20;99.90;;;;;;4990302;28;20519;-81
2023/05/30 12:57:12;;;;;;;1.35;0.40;;;14.20;99.90;;;;;;4992762;28;20490;-86
2023/05/30 12:59:38;;;;;;;0.93;0.40;;;14.10;99.90;;;;;;4991865;28;20052;-83
2023/05/30 13:02:05;;;;;;;0.93;0.60;;;14.00;99.90;;;;;;5008865;28;20100;-80
2023/05/30 13:04:32;;;;;;;1.75;0.80;;;14.00;99.90;;;;;;5005743;28;20082;-81
2023/05/30 13:06:58;;;;;;;0.70;0.45;;;14.00;99.90;;;;;;5010306;28;20125;-80
2023/05/30 13:09:24;;;;;;;2.72;0.70;;;14.00;99.90;;;;;;5011936;28;20065;-80
2023/05/30 13:11:50;;;;;;;1.05;0.68;;;13.90;99.90;;;;;;4992864;28;20038;-81
2023/05/30 13:14:16;;;;;;;1.58;0.70;;;13.90;99.90;;;;;;4976492;28;20038;-81
2023/05/30 13:16:43;;;;;;;1.50;0.82;;;14.00;99.90;;;;;;4998333;28;20427;-81